Time,TemperatureF,DewpointF,PressureIn,WindDirection,WindDirectionDegrees,WindSpeedMPH,WindSpeedGustMPH,Humidity,HourlyPrecipIn,Conditions,Clouds,dailyrainin,SoftwareType,DateUTC
2013-01-23 00:02:00,44.0,6.0,30.03,NNE,23,1.0,3.0,20,0.00,,,0.00,,2013-01-23 07:02:00,
2013-01-23 00:22:00,43.0,5.0,30.03,ESE,113,0.0,3.0,20,0.00,,,0.00,,2013-01-23 07:22:00,
2013-01-23 00:32:00,43.0,5.0,30.06,East,90,3.0,3.0,20,0.00,,,0.00,,2013-01-23 07:32:00,
2013-01-23 00:53:00,42.0,5.0,30.06,ESE,113,2.0,4.0,21,0.00,,,0.00,,2013-01-23 07:53:00,
2013-01-23 01:01:00,42.0,5.0,30.06,ENE,68,1.0,2.0,21,0.00,,,0.00,,2013-01-23 08:01:00,
2013-01-23 01:22:00,42.0,5.0,30.06,East,90,0.0,3.0,21,0.00,,,0.00,,2013-01-23 08:22:00,
2013-01-23 01:32:00,42.0,7.0,30.06,ENE,68,3.0,4.0,23,0.00,,,0.00,,2013-01-23 08:32:00,
2013-01-23 01:53:00,42.0,7.0,30.06,NNE,23,3.0,4.0,23,0.00,,,0.00,,2013-01-23 08:53:00,
2013-01-23 02:02:00,42.0,7.0,30.06,ENE,68,3.0,3.0,23,0.00,,,0.00,,2013-01-23 09:02:00,
2013-01-23 02:12:00,42.0,7.0,30.06,ENE,68,3.0,3.0,23,0.00,,,0.00,,2013-01-23 09:12:00,
2013-01-23 02:22:00,42.0,7.0,30.06,NNE,23,2.0,3.0,23,0.00,,,0.00,,2013-01-23 09:22:00,
2013-01-23 02:32:00,42.0,7.0,30.06,NNW,338,2.0,2.0,23,0.00,,,0.00,,2013-01-23 09:32:00,
2013-01-23 02:43:00,42.0,7.0,30.06,NNW,338,2.0,2.0,23,0.00,,,0.00,,2013-01-23 09:43:00,
2013-01-23 02:53:00,41.0,6.0,30.06,ESE,113,0.0,2.0,23,0.00,,,0.00,,2013-01-23 09:53:00,
2013-01-23 03:02:00,41.0,6.0,30.03,NE,45,2.0,4.0,23,0.00,,,0.00,,2013-01-23 10:02:00,
2013-01-23 03:22:00,41.0,6.0,30.06,WSW,248,0.0,2.0,23,0.00,,,0.00,,2013-01-23 10:22:00,
2013-01-23 03:32:00,41.0,6.0,30.06,WSW,248,0.0,2.0,23,0.00,,,0.00,,2013-01-23 10:32:00,
2013-01-23 03:42:00,41.0,6.0,30.06,WSW,248,0.0,2.0,23,0.00,,,0.00,,2013-01-23 10:42:00,
2013-01-23 03:53:00,41.0,6.0,30.06,ESE,113,2.0,4.0,23,0.00,,,0.00,,2013-01-23 10:53:00,
2013-01-23 04:02:00,41.0,6.0,30.06,ESE,113,1.0,3.0,23,0.00,,,0.00,,2013-01-23 11:02:00,
2013-01-23 04:11:00,41.0,6.0,30.06,ESE,113,1.0,3.0,23,0.00,,,0.00,,2013-01-23 11:11:00,
2013-01-23 04:22:00,41.0,6.0,30.06,ESE,113,1.0,4.0,23,0.00,,,0.00,,2013-01-23 11:22:00,
2013-01-23 04:32:00,41.0,6.0,30.03,East,90,0.0,0.0,23,0.00,,,0.00,,2013-01-23 11:32:00,
2013-01-23 04:42:00,41.0,6.0,30.03,East,90,0.0,0.0,23,0.00,,,0.00,,2013-01-23 11:42:00,
2013-01-23 04:53:00,40.0,5.0,30.03,ENE,68,2.0,3.0,23,0.00,,,0.00,,2013-01-23 11:53:00,
2013-01-23 05:02:00,40.0,5.0,30.06,SE,135,2.0,3.0,23,0.00,,,0.00,,2013-01-23 12:02:00,
2013-01-23 05:22:00,40.0,5.0,30.06,ENE,68,1.0,3.0,23,0.00,,,0.00,,2013-01-23 12:22:00,
2013-01-23 05:32:00,40.0,5.0,30.06,ENE,68,1.0,2.0,23,0.00,,,0.00,,2013-01-23 12:32:00,
2013-01-23 05:53:00,39.0,4.0,30.06,SE,135,3.0,4.0,23,0.00,,,0.00,,2013-01-23 12:53:00,
2013-01-23 06:03:00,39.0,4.0,30.06,NE,45,2.0,3.0,23,0.00,,,0.00,,2013-01-23 13:03:00,
2013-01-23 06:22:00,39.0,7.0,30.06,West,270,2.0,2.0,26,0.00,,,0.00,,2013-01-23 13:22:00,
2013-01-23 06:33:00,39.0,7.0,30.06,SE,135,2.0,3.0,26,0.00,,,0.00,,2013-01-23 13:33:00,
2013-01-23 06:42:00,39.0,7.0,30.06,SE,135,2.0,3.0,26,0.00,,,0.00,,2013-01-23 13:42:00,
2013-01-23 06:53:00,39.0,7.0,30.06,SSE,158,3.0,3.0,26,0.00,,,0.00,,2013-01-23 13:53:00,
2013-01-23 07:02:00,38.0,6.0,30.03,NE,45,1.0,4.0,26,0.00,,,0.00,,2013-01-23 14:02:00,
2013-01-23 07:12:00,38.0,6.0,30.03,NE,45,1.0,4.0,26,0.00,,,0.00,,2013-01-23 14:12:00,
2013-01-23 07:23:00,38.0,6.0,30.06,ESE,113,2.0,3.0,26,0.00,,,0.00,,2013-01-23 14:23:00,
2013-01-23 07:33:00,38.0,6.0,30.06,NE,45,1.0,2.0,26,0.00,,,0.00,,2013-01-23 14:33:00,
2013-01-23 07:42:00,38.0,6.0,30.06,NE,45,1.0,2.0,26,0.00,,,0.00,,2013-01-23 14:42:00,
2013-01-23 07:53:00,38.0,6.0,30.06,ESE,113,1.0,2.0,26,0.00,,,0.00,,2013-01-23 14:53:00,
2013-01-23 08:02:00,38.0,6.0,30.06,ESE,113,2.0,2.0,26,0.00,,,0.00,,2013-01-23 15:02:00,
2013-01-23 08:12:00,38.0,6.0,30.06,ESE,113,2.0,2.0,26,0.00,,,0.00,,2013-01-23 15:12:00,
2013-01-23 08:22:00,39.0,7.0,30.06,SSE,158,1.0,2.0,26,0.00,,,0.00,,2013-01-23 15:22:00,
2013-01-23 08:32:00,40.0,8.0,30.06,East,90,0.0,4.0,26,0.00,,,0.00,,2013-01-23 15:32:00,
2013-01-23 08:43:00,40.0,8.0,30.06,East,90,0.0,4.0,26,0.00,,,0.00,,2013-01-23 15:43:00,
2013-01-23 08:53:00,47.0,15.0,30.10,ENE,68,2.0,3.0,27,0.00,,,0.00,,2013-01-23 15:53:00,
2013-01-23 09:02:00,45.0,11.0,30.10,ESE,113,1.0,2.0,25,0.00,,,0.00,,2013-01-23 16:02:00,
2013-01-23 09:22:00,47.0,12.0,30.10,East,90,1.0,2.0,24,0.00,,,0.00,,2013-01-23 16:22:00,
2013-01-23 09:32:00,49.0,14.0,30.13,ESE,113,1.0,2.0,24,0.00,,,0.00,,2013-01-23 16:32:00,
2013-01-23 09:52:00,50.0,12.0,30.10,East,90,2.0,2.0,21,0.00,,,0.00,,2013-01-23 16:52:00,
2013-01-23 10:02:00,50.0,12.0,30.10,NNE,23,2.0,3.0,21,0.00,,,0.00,,2013-01-23 17:02:00,
2013-01-23 10:22:00,52.0,13.0,30.13,NNE,23,0.0,2.0,21,0.00,,,0.00,,2013-01-23 17:22:00,
2013-01-23 10:33:00,54.0,14.0,30.13,SE,135,0.0,1.0,20,0.00,,,0.00,,2013-01-23 17:33:00,
2013-01-23 10:53:00,56.0,16.0,30.13,ENE,68,1.0,1.0,20,0.00,,,0.00,,2013-01-23 17:53:00,
2013-01-23 11:02:00,58.0,13.0,30.13,SE,135,0.0,2.0,17,0.00,,,0.00,,2013-01-23 18:02:00,
2013-01-23 11:22:00,59.0,14.0,30.13,SW,225,4.0,5.0,17,0.00,,,0.00,,2013-01-23 18:22:00,
2013-01-23 11:42:00,61.0,14.0,30.13,WSW,248,6.0,7.0,16,0.00,,,0.00,,2013-01-23 18:42:00,
2013-01-23 11:53:00,60.0,15.0,30.06,NNW,338,3.0,6.0,17,0.00,,,0.00,,2013-01-23 18:53:00,
2013-01-23 12:02:00,61.0,16.0,30.06,NNW,338,3.0,4.0,17,0.00,,,0.00,,2013-01-23 19:02:00,
2013-01-23 12:22:00,60.0,15.0,30.06,SSW,203,1.0,3.0,17,0.00,,,0.00,,2013-01-23 19:22:00,
2013-01-23 12:32:00,61.0,14.0,30.06,SE,135,0.0,2.0,16,0.00,,,0.00,,2013-01-23 19:32:00,
2013-01-23 12:42:00,61.0,14.0,30.06,SE,135,0.0,2.0,16,0.00,,,0.00,,2013-01-23 19:42:00,
2013-01-23 12:53:00,62.0,15.0,30.03,South,180,1.0,2.0,16,0.00,,,0.00,,2013-01-23 19:53:00,
2013-01-23 13:02:00,63.0,16.0,30.03,SSW,203,0.0,2.0,16,0.00,,,0.00,,2013-01-23 20:02:00,
2013-01-23 13:12:00,63.0,16.0,30.03,SSW,203,0.0,2.0,16,0.00,,,0.00,,2013-01-23 20:12:00,
2013-01-23 13:22:00,64.0,17.0,30.03,SSW,203,2.0,3.0,16,0.00,,,0.00,,2013-01-23 20:22:00,
2013-01-23 13:32:00,63.0,16.0,30.00,WSW,248,3.0,3.0,16,0.00,,,0.00,,2013-01-23 20:32:00,
2013-01-23 13:42:00,63.0,16.0,30.00,WSW,248,3.0,3.0,16,0.00,,,0.00,,2013-01-23 20:42:00,
2013-01-23 13:53:00,63.0,16.0,30.03,WNW,293,1.0,1.0,16,0.00,,,0.00,,2013-01-23 20:53:00,
2013-01-23 14:02:00,63.0,16.0,30.00,West,270,2.0,3.0,16,0.00,,,0.00,,2013-01-23 21:02:00,
2013-01-23 14:12:00,63.0,16.0,30.00,West,270,2.0,3.0,16,0.00,,,0.00,,2013-01-23 21:12:00,
2013-01-23 14:22:00,63.0,16.0,30.03,SW,225,3.0,5.0,16,0.00,,,0.00,,2013-01-23 21:22:00,
2013-01-23 14:32:00,65.0,16.0,30.03,WSW,248,3.0,4.0,15,0.00,,,0.00,,2013-01-23 21:32:00,
2013-01-23 14:42:00,65.0,16.0,30.03,WSW,248,3.0,4.0,15,0.00,,,0.00,,2013-01-23 21:42:00,
2013-01-23 14:53:00,66.0,17.0,30.00,SW,225,1.0,3.0,15,0.00,,,0.00,,2013-01-23 21:53:00,
2013-01-23 15:02:00,70.0,19.0,30.00,East,90,2.0,3.0,14,0.00,,,0.00,,2013-01-23 22:02:00,
2013-01-23 15:22:00,69.0,19.0,30.00,South,180,1.0,2.0,15,0.00,,,0.00,,2013-01-23 22:22:00,
2013-01-23 15:32:00,66.0,17.0,30.00,SW,225,1.0,3.0,15,0.00,,,0.00,,2013-01-23 22:32:00,
2013-01-23 15:42:00,66.0,17.0,30.00,SW,225,1.0,3.0,15,0.00,,,0.00,,2013-01-23 22:42:00,
2013-01-23 15:53:00,65.0,16.0,30.00,South,180,2.0,3.0,15,0.00,,,0.00,,2013-01-23 22:53:00,
2013-01-23 16:02:00,64.0,17.0,30.00,South,180,2.0,2.0,16,0.00,,,0.00,,2013-01-23 23:02:00,
2013-01-23 16:12:00,64.0,17.0,30.00,South,180,2.0,2.0,16,0.00,,,0.00,,2013-01-23 23:12:00,
2013-01-23 16:22:00,64.0,17.0,30.00,SSE,158,2.0,3.0,16,0.00,,,0.00,,2013-01-23 23:22:00,
2013-01-23 16:32:00,65.0,16.0,29.96,SW,225,1.0,3.0,15,0.00,,,0.00,,2013-01-23 23:32:00,
2013-01-23 16:42:00,65.0,16.0,29.96,SW,225,1.0,3.0,15,0.00,,,0.00,,2013-01-23 23:42:00,
2013-01-23 16:53:00,65.0,16.0,30.00,SSW,203,2.0,3.0,15,0.00,,,0.00,,2013-01-23 23:53:00,
2013-01-23 17:02:00,64.0,17.0,30.00,WNW,293,3.0,4.0,16,0.00,,,0.00,,2013-01-24 00:02:00,
2013-01-23 17:11:00,64.0,17.0,30.00,WNW,293,3.0,4.0,16,0.00,,,0.00,,2013-01-24 00:11:00,
2013-01-23 17:22:00,63.0,16.0,30.00,West,270,2.0,4.0,16,0.00,,,0.00,,2013-01-24 00:22:00,
2013-01-23 17:32:00,61.0,14.0,30.00,West,270,1.0,2.0,16,0.00,,,0.00,,2013-01-24 00:32:00,
2013-01-23 17:42:00,61.0,14.0,30.00,West,270,1.0,2.0,16,0.00,,,0.00,,2013-01-24 00:42:00,
2013-01-23 17:53:00,60.0,15.0,30.00,West,270,1.0,2.0,17,0.00,,,0.00,,2013-01-24 00:53:00,
2013-01-23 18:02:00,58.0,13.0,30.00,NNW,338,2.0,2.0,17,0.00,,,0.00,,2013-01-24 01:02:00,
2013-01-23 18:22:00,57.0,13.0,30.00,West,270,3.0,4.0,17,0.00,,,0.00,,2013-01-24 01:22:00,
2013-01-23 18:32:00,56.0,12.0,29.96,NNW,338,3.0,3.0,17,0.00,,,0.00,,2013-01-24 01:32:00,
2013-01-23 18:52:00,55.0,12.0,30.00,West,270,3.0,4.0,18,0.00,,,0.00,,2013-01-24 01:52:00,
2013-01-23 19:02:00,54.0,11.0,29.96,NE,45,1.0,2.0,18,0.00,,,0.00,,2013-01-24 02:02:00,
2013-01-23 19:22:00,53.0,11.0,30.00,WSW,248,1.0,1.0,18,0.00,,,0.00,,2013-01-24 02:22:00,
2013-01-23 19:32:00,53.0,11.0,30.00,ESE,113,0.0,2.0,18,0.00,,,0.00,,2013-01-24 02:32:00,
2013-01-23 19:42:00,53.0,11.0,30.00,ESE,113,0.0,2.0,18,0.00,,,0.00,,2013-01-24 02:42:00,
2013-01-23 19:52:00,53.0,11.0,30.00,ESE,113,0.0,2.0,18,0.00,,,0.00,,2013-01-24 02:52:00,
2013-01-23 20:02:00,53.0,14.0,30.00,NNE,23,3.0,5.0,21,0.00,,,0.00,,2013-01-24 03:02:00,
2013-01-23 20:22:00,52.0,15.0,30.03,WNW,293,0.0,2.0,23,0.00,,,0.00,,2013-01-24 03:22:00,
2013-01-23 20:32:00,52.0,15.0,30.03,NNE,23,2.0,3.0,23,0.00,,,0.00,,2013-01-24 03:32:00,
2013-01-23 20:42:00,52.0,15.0,30.03,NNE,23,2.0,3.0,23,0.00,,,0.00,,2013-01-24 03:42:00,
2013-01-23 20:52:00,52.0,16.0,30.03,East,90,2.0,3.0,24,0.00,,,0.00,,2013-01-24 03:52:00,
2013-01-23 21:02:00,51.0,17.0,30.03,NNE,23,2.0,3.0,26,0.00,,,0.00,,2013-01-24 04:02:00,
2013-01-23 21:12:00,51.0,17.0,30.03,NNE,23,2.0,3.0,26,0.00,,,0.00,,2013-01-24 04:12:00,
2013-01-23 21:22:00,51.0,17.0,30.03,WNW,293,1.0,2.0,26,0.00,,,0.00,,2013-01-24 04:22:00,
2013-01-23 21:32:00,51.0,17.0,30.03,NE,45,0.0,2.0,26,0.00,,,0.00,,2013-01-24 04:32:00,
2013-01-23 21:42:00,51.0,17.0,30.03,NE,45,0.0,2.0,26,0.00,,,0.00,,2013-01-24 04:42:00,
2013-01-23 21:52:00,51.0,17.0,30.03,NE,45,1.0,3.0,26,0.00,,,0.00,,2013-01-24 04:52:00,
2013-01-23 22:02:00,51.0,17.0,30.03,North,0,0.0,2.0,26,0.00,,,0.00,,2013-01-24 05:02:00,
2013-01-23 22:12:00,51.0,17.0,30.03,North,0,0.0,2.0,26,0.00,,,0.00,,2013-01-24 05:12:00,
2013-01-23 22:22:00,51.0,18.0,30.03,NE,45,0.0,0.0,27,0.00,,,0.00,,2013-01-24 05:22:00,
2013-01-23 22:32:00,51.0,17.0,30.03,ENE,68,3.0,3.0,26,0.00,,,0.00,,2013-01-24 05:32:00,
2013-01-23 22:42:00,51.0,17.0,30.03,ENE,68,3.0,3.0,26,0.00,,,0.00,,2013-01-24 05:42:00,
2013-01-23 22:53:00,51.0,18.0,30.03,NNE,23,2.0,3.0,27,0.00,,,0.00,,2013-01-24 05:53:00,
2013-01-23 23:02:00,51.0,18.0,30.03,NNE,23,2.0,2.0,27,0.00,,,0.00,,2013-01-24 06:02:00,
2013-01-23 23:12:00,51.0,18.0,30.03,NNE,23,2.0,2.0,27,0.00,,,0.00,,2013-01-24 06:12:00,
2013-01-23 23:22:00,51.0,18.0,30.03,ENE,68,2.0,3.0,27,0.00,,,0.00,,2013-01-24 06:22:00,
2013-01-23 23:32:00,50.0,17.0,30.03,ESE,113,2.0,4.0,27,0.00,,,0.00,,2013-01-24 06:32:00,
2013-01-23 23:42:00,50.0,17.0,30.03,ESE,113,2.0,4.0,27,0.00,,,0.00,,2013-01-24 06:42:00,
2013-01-23 23:52:00,50.0,17.0,30.03,ENE,68,1.0,3.0,27,0.00,,,0.00,,2013-01-24 06:52:00,